Time;durP1;ratioP1;P1;durP2;ratioP2;P2;SDS_P1;SDS_P2;PMS_P1;PMS_P2;Temp;Humidity;BMP_temperature;BMP_pressure;BME280_temperature;BME280_humidity;BME280_pressure;Samples;Min_cycle;Max_cycle;Signal;HPM_P1;HPM_P2
2022/04/09 00:01:29;;;;;;;1.08;0.70;;;11.40;99.90;;;;;;5009510;28;20529;-77
2022/04/09 00:03:54;;;;;;;0.70;0.70;;;11.50;99.90;;;;;;5012584;28;20038;-77
2022/04/09 00:06:20;;;;;;;1.60;1.02;;;11.40;99.90;;;;;;5021630;28;20042;-77
2022/04/09 00:08:46;;;;;;;1.80;0.75;;;11.40;99.90;;;;;;5016805;28;20546;-77
2022/04/09 00:11:12;;;;;;;1.05;0.65;;;11.40;99.90;;;;;;5004762;28;20101;-77
2022/04/09 00:13:38;;;;;;;1.00;0.73;;;11.40;99.90;;;;;;5007069;28;20396;-77
2022/04/09 00:16:04;;;;;;;4.53;0.95;;;11.40;99.90;;;;;;5014638;28;20418;-77
2022/04/09 00:18:30;;;;;;;1.83;1.10;;;11.30;99.90;;;;;;5013407;28;20489;-77
2022/04/09 00:20:55;;;;;;;1.30;0.80;;;11.40;99.90;;;;;;5017404;28;20109;-77
2022/04/09 00:23:23;;;;;;;0.70;0.70;;;11.40;99.90;;;;;;5017227;28;20033;-77
2022/04/09 00:25:49;;;;;;;1.67;0.70;;;11.50;99.90;;;;;;5015758;28;20034;-77
2022/04/09 00:28:15;;;;;;;1.00;0.98;;;11.50;99.90;;;;;;5019153;28;20041;-78
2022/04/09 00:30:40;;;;;;;2.80;0.80;;;11.60;99.90;;;;;;5015007;28;20036;-78
2022/04/09 00:33:06;;;;;;;0.68;0.40;;;11.60;99.90;;;;;;5012800;28;20550;-77
2022/04/09 00:35:32;;;;;;;2.03;0.90;;;11.50;99.90;;;;;;5012676;28;20034;-78
2022/04/09 00:37:58;;;;;;;1.90;0.80;;;11.70;99.90;;;;;;5018474;28;20069;-78
2022/04/09 00:40:25;;;;;;;1.15;0.80;;;11.70;99.90;;;;;;5014535;28;20049;-78
2022/04/09 00:42:51;;;;;;;2.03;0.95;;;11.60;99.90;;;;;;5020083;28;20476;-78
2022/04/09 00:45:17;;;;;;;3.17;1.00;;;11.60;99.90;;;;;;5017596;28;20061;-77
2022/04/09 00:47:43;;;;;;;1.35;1.02;;;11.60;99.90;;;;;;5009001;28;20482;-78
2022/04/09 00:50:10;;;;;;;0.93;0.82;;;11.60;99.90;;;;;;5013409;28;20044;-77
2022/04/09 00:52:45;;;;;;;1.90;0.88;;;11.60;99.90;;;;;;5012868;28;20045;-78
2022/04/09 00:55:13;;;;;;;3.58;1.45;;;11.60;99.90;;;;;;5015182;28;20029;-78
2022/04/09 00:57:42;;;;;;;1.63;1.10;;;11.70;99.90;;;;;;5012200;28;20037;-78
2022/04/09 01:00:09;;;;;;;1.27;1.10;;;11.70;99.90;;;;;;5007084;28;20029;-78
2022/04/09 01:02:43;;;;;;;1.27;1.05;;;11.60;99.90;;;;;;5017350;28;20045;-78
2022/04/09 01:05:10;;;;;;;4.18;1.25;;;11.50;99.90;;;;;;5008679;28;20145;-78
2022/04/09 01:07:35;;;;;;;2.85;0.90;;;11.40;99.90;;;;;;5018054;28;20053;-78
2022/04/09 01:10:03;;;;;;;2.40;1.00;;;11.50;99.90;;;;;;5015128;28;20091;-78
2022/04/09 01:12:29;;;;;;;2.58;1.00;;;11.60;99.90;;;;;;5016870;28;20462;-78
2022/04/09 01:14:55;;;;;;;2.67;1.10;;;11.60;99.90;;;;;;5017517;28;20030;-78
2022/04/09 01:17:21;;;;;;;0.90;0.80;;;11.60;99.90;;;;;;5012537;28;20682;-78
2022/04/09 01:19:46;;;;;;;1.48;0.95;;;11.60;99.90;;;;;;5018916;28;20094;-78
2022/04/09 01:22:12;;;;;;;1.08;0.75;;;11.50;99.90;;;;;;5010957;28;20042;-78
2022/04/09 01:24:38;;;;;;;1.90;1.10;;;11.40;99.90;;;;;;5011421;28;20030;-78
2022/04/09 01:27:04;;;;;;;2.80;0.95;;;11.40;99.90;;;;;;5012645;28;20390;-79
2022/04/09 01:29:30;;;;;;;3.20;1.10;;;11.50;99.90;;;;;;5013959;28;20102;-79
2022/04/09 01:31:55;;;;;;;1.67;1.00;;;11.40;99.90;;;;;;5017562;28;20141;-79
2022/04/09 01:34:21;;;;;;;2.88;1.20;;;11.40;99.90;;;;;;5015328;28;20252;-78
2022/04/09 01:36:47;;;;;;;2.45;1.45;;;11.40;99.90;;;;;;5013499;28;20030;-78
2022/04/09 01:39:17;;;;;;;3.38;1.15;;;11.40;99.90;;;;;;5012960;28;20041;-78
2022/04/09 01:41:43;;;;;;;1.17;1.08;;;11.40;99.90;;;;;;5010268;28;20044;-78
2022/04/09 01:44:09;;;;;;;1.75;1.00;;;11.50;99.90;;;;;;5012372;28;20060;-78
2022/04/09 01:46:34;;;;;;;1.55;1.10;;;11.60;99.90;;;;;;5009838;28;20109;-78
2022/04/09 01:49:00;;;;;;;3.47;1.25;;;11.60;99.90;;;;;;5014804;28;20394;-78
2022/04/09 01:51:26;;;;;;;2.45;1.10;;;11.60;99.90;;;;;;5018220;28;20075;-78
2022/04/09 01:53:52;;;;;;;1.45;1.00;;;11.50;99.90;;;;;;5019088;28;20053;-79
2022/04/09 01:56:18;;;;;;;1.58;1.20;;;11.50;99.90;;;;;;5014436;28;20656;-78
2022/04/09 01:58:43;;;;;;;1.73;1.50;;;11.50;99.90;;;;;;5011103;28;20042;-78
2022/04/09 02:01:09;;;;;;;3.08;1.20;;;11.50;99.90;;;;;;5012340;28;20832;-78
2022/04/09 02:03:35;;;;;;;3.45;1.27;;;11.50;99.90;;;;;;5010913;28;20033;-78
2022/04/09 02:06:01;;;;;;;1.38;1.20;;;11.50;99.90;;;;;;5008469;28;20467;-79
2022/04/09 02:08:26;;;;;;;1.65;1.30;;;11.50;99.90;;;;;;5010647;28;20053;-78
2022/04/09 02:10:54;;;;;;;1.40;1.17;;;11.50;99.90;;;;;;5006680;28;20061;-79
2022/04/09 02:13:19;;;;;;;2.22;1.05;;;11.50;99.90;;;;;;5011401;28;20040;-79
2022/04/09 02:15:45;;;;;;;2.40;1.13;;;11.50;99.90;;;;;;5009003;28;20041;-79
2022/04/09 02:18:11;;;;;;;2.97;0.90;;;11.50;99.90;;;;;;5011772;28;20443;-79
2022/04/09 02:20:36;;;;;;;1.85;0.82;;;11.60;99.90;;;;;;5011594;28;20030;-78
2022/04/09 02:23:02;;;;;;;3.42;1.73;;;11.60;99.90;;;;;;5009442;28;20049;-79
2022/04/09 02:25:28;;;;;;;1.88;1.10;;;11.70;99.90;;;;;;5011735;28;20113;-78
2022/04/09 02:27:53;;;;;;;0.43;0.43;;;11.50;99.90;;;;;;5006976;28;20033;-78
2022/04/09 02:30:19;;;;;;;0.98;0.50;;;11.50;99.90;;;;;;5045555;28;20030;-78
2022/04/09 02:32:50;;;;;;;1.58;0.70;;;11.50;99.90;;;;;;5016544;28;20033;-78
2022/04/09 02:35:17;;;;;;;2.90;0.50;;;11.60;99.90;;;;;;5016240;28;20025;-78
2022/04/09 02:37:43;;;;;;;3.35;0.60;;;11.70;99.90;;;;;;5025848;28;20140;-78
2022/04/09 02:40:10;;;;;;;1.70;0.60;;;11.70;99.90;;;;;;5013912;28;20689;-78
2022/04/09 02:42:37;;;;;;;0.50;0.40;;;11.70;99.90;;;;;;5011311;28;20057;-78
2022/04/09 02:45:04;;;;;;;0.73;0.40;;;11.60;99.90;;;;;;5013249;28;20482;-78
2022/04/09 02:47:30;;;;;;;1.52;0.70;;;11.60;99.90;;;;;;5016298;28;20147;-77
2022/04/09 02:49:56;;;;;;;1.25;0.50;;;11.60;99.90;;;;;;5009295;28;20037;-78
2022/04/09 02:52:22;;;;;;;1.50;0.65;;;11.50;99.90;;;;;;5015600;28;20095;-76
2022/04/09 02:54:47;;;;;;;0.57;0.43;;;11.50;99.90;;;;;;5012697;28;20033;-76
2022/04/09 02:57:13;;;;;;;1.17;0.50;;;11.50;99.90;;;;;;5015309;28;20040;-76
2022/04/09 02:59:39;;;;;;;0.90;0.50;;;11.50;99.90;;;;;;5009688;28;20047;-76
2022/04/09 03:02:04;;;;;;;2.22;0.60;;;11.50;99.90;;;;;;5014620;28;20041;-76
2022/04/09 03:04:30;;;;;;;0.70;0.40;;;11.40;99.90;;;;;;5010364;28;20533;-76
2022/04/09 03:06:56;;;;;;;0.57;0.28;;;11.40;99.90;;;;;;5010732;28;20374;-76
2022/04/09 03:09:22;;;;;;;0.68;0.40;;;11.40;99.90;;;;;;5011141;28;20387;-76
2022/04/09 03:11:48;;;;;;;0.38;0.17;;;11.50;99.90;;;;;;5006951;28;20044;-76
2022/04/09 03:14:13;;;;;;;0.63;0.50;;;11.50;99.90;;;;;;5009752;28;20034;-76
2022/04/09 03:16:39;;;;;;;2.28;0.30;;;11.50;99.90;;;;;;5014880;28;20024;-75
2022/04/09 03:19:05;;;;;;;0.73;0.70;;;11.50;99.90;;;;;;5008489;28;20045;-76
2022/04/09 03:21:30;;;;;;;2.05;0.55;;;11.60;99.90;;;;;;5015717;28;20513;-76
2022/04/09 03:23:56;;;;;;;0.47;0.38;;;11.60;99.90;;;;;;5030745;28;20061;-76
2022/04/09 03:26:22;;;;;;;1.02;0.63;;;11.60;99.90;;;;;;5008947;28;20033;-76
2022/04/09 03:28:47;;;;;;;1.08;0.43;;;11.60;99.90;;;;;;5007149;28;20037;-77
2022/04/09 03:31:13;;;;;;;0.60;0.47;;;11.70;99.90;;;;;;5011182;28;20620;-76
2022/04/09 03:33:39;;;;;;;1.30;0.50;;;11.70;99.90;;;;;;5019174;28;20034;-76
2022/04/09 03:36:06;;;;;;;0.40;0.30;;;11.70;99.90;;;;;;5010296;28;20038;-76
2022/04/09 03:38:31;;;;;;;1.63;0.40;;;11.70;99.90;;;;;;5010061;28;20046;-76
2022/04/09 03:40:57;;;;;;;0.38;0.38;;;11.70;99.90;;;;;;5009315;28;20036;-76
2022/04/09 03:43:23;;;;;;;1.65;0.20;;;11.60;99.90;;;;;;5014443;28;20117;-76
2022/04/09 03:45:48;;;;;;;0.82;0.38;;;11.60;99.90;;;;;;5008331;28;20037;-76
2022/04/09 03:48:14;;;;;;;1.00;0.50;;;11.50;99.90;;;;;;5012120;28;20486;-76
2022/04/09 03:50:40;;;;;;;0.85;0.40;;;11.50;99.90;;;;;;5012027;28;20029;-76
2022/04/09 03:53:05;;;;;;;1.17;0.50;;;11.40;99.90;;;;;;5015290;28;20046;-76
2022/04/09 03:55:31;;;;;;;1.17;0.80;;;11.30;99.90;;;;;;5015393;28;20057;-76
2022/04/09 03:57:57;;;;;;;0.82;0.50;;;11.30;99.90;;;;;;5020408;28;20227;-76
2022/04/09 04:00:23;;;;;;;1.35;0.57;;;11.30;99.90;;;;;;5017164;28;20037;-76
2022/04/09 04:02:48;;;;;;;0.50;0.40;;;11.30;99.90;;;;;;5016916;28;20489;-75
2022/04/09 04:05:14;;;;;;;1.20;0.30;;;11.30;99.90;;;;;;5010367;28;20553;-76
2022/04/09 04:07:44;;;;;;;1.75;0.52;;;11.20;99.90;;;;;;5016945;28;20041;-75
2022/04/09 04:10:10;;;;;;;0.50;0.30;;;11.20;99.90;;;;;;5016777;28;20037;-76
2022/04/09 04:12:37;;;;;;;0.35;0.20;;;11.20;99.90;;;;;;5019596;28;20025;-76
2022/04/09 04:15:03;;;;;;;1.33;0.22;;;11.10;99.90;;;;;;5014824;28;20407;-75
2022/04/09 04:17:43;;;;;;;2.08;0.70;;;11.10;99.90;;;;;;5014169;28;20052;-75
2022/04/09 04:20:10;;;;;;;2.10;1.00;;;11.10;99.90;;;;;;5012164;28;20039;-76
2022/04/09 04:22:36;;;;;;;0.65;0.50;;;11.10;99.90;;;;;;5013668;28;20026;-76
2022/04/09 04:25:03;;;;;;;2.33;0.60;;;11.20;99.90;;;;;;5012663;28;20041;-75
2022/04/09 04:27:29;;;;;;;1.45;0.43;;;11.10;99.90;;;;;;5016128;28;20067;-76
2022/04/09 04:29:59;;;;;;;1.38;0.60;;;11.10;99.90;;;;;;5013320;28;20057;-76
2022/04/09 04:32:25;;;;;;;0.70;0.47;;;11.10;99.90;;;;;;5014833;28;20056;-76
2022/04/09 04:34:51;;;;;;;1.77;0.30;;;11.10;99.90;;;;;;5012344;28;20065;-76
2022/04/09 04:37:16;;;;;;;0.95;0.82;;;11.10;99.90;;;;;;5016206;28;20129;-76
2022/04/09 04:39:43;;;;;;;0.47;0.20;;;11.10;99.90;;;;;;5030779;28;20413;-75
2022/04/09 04:42:08;;;;;;;3.65;0.40;;;11.10;99.90;;;;;;5017428;28;20099;-76
2022/04/09 04:44:34;;;;;;;1.83;0.40;;;11.10;99.90;;;;;;5018744;28;20550;-75
2022/04/09 04:47:00;;;;;;;1.00;0.40;;;11.10;99.90;;;;;;5018715;28;20025;-75
2022/04/09 04:49:25;;;;;;;0.88;0.30;;;11.20;99.90;;;;;;5017686;28;20402;-76
2022/04/09 04:51:51;;;;;;;1.45;0.28;;;11.20;99.90;;;;;;5019455;28;20482;-76
2022/04/09 04:54:17;;;;;;;3.30;0.50;;;11.20;99.90;;;;;;5009744;28;20091;-77
2022/04/09 04:56:43;;;;;;;1.42;0.45;;;11.10;99.90;;;;;;5009859;28;20045;-77
2022/04/09 04:59:08;;;;;;;0.60;0.55;;;11.10;99.90;;;;;;5010061;28;20042;-77
2022/04/09 05:01:37;;;;;;;1.52;0.70;;;11.10;99.90;;;;;;5013086;28;20088;-77
2022/04/09 05:04:04;;;;;;;1.23;0.40;;;11.20;99.90;;;;;;5015452;28;20441;-77
2022/04/09 05:06:30;;;;;;;1.38;0.50;;;11.10;99.90;;;;;;5012618;28;20088;-76
2022/04/09 05:08:55;;;;;;;2.10;0.60;;;11.20;99.90;;;;;;5016279;28;20137;-77
2022/04/09 05:11:21;;;;;;;0.75;0.40;;;11.20;99.90;;;;;;5011207;28;20049;-77
2022/04/09 05:13:47;;;;;;;0.80;0.30;;;11.20;99.90;;;;;;5017290;28;20037;-76
2022/04/09 05:16:13;;;;;;;1.95;0.60;;;11.30;99.90;;;;;;5007034;28;20037;-77
2022/04/09 05:18:39;;;;;;;3.17;0.73;;;11.30;99.90;;;;;;5010142;28;20042;-76
2022/04/09 05:21:04;;;;;;;1.70;0.63;;;11.30;99.90;;;;;;5019117;28;20030;-77
2022/04/09 05:23:30;;;;;;;2.58;0.50;;;11.30;99.90;;;;;;5025247;28;20083;-77
2022/04/09 05:25:56;;;;;;;1.88;0.57;;;11.30;99.90;;;;;;5009300;28;20033;-77
2022/04/09 05:28:22;;;;;;;1.05;0.60;;;11.30;99.90;;;;;;5010816;28;20607;-77
2022/04/09 05:30:50;;;;;;;2.95;0.68;;;11.30;99.90;;;;;;5009038;28;20892;-76
2022/04/09 05:33:19;;;;;;;2.47;0.80;;;11.30;99.90;;;;;;5012777;28;20025;-77
2022/04/09 05:35:45;;;;;;;1.30;0.68;;;11.30;99.90;;;;;;5009058;28;20049;-77
2022/04/09 05:38:11;;;;;;;1.08;0.50;;;11.30;99.90;;;;;;5009191;28;20030;-77
2022/04/09 05:40:37;;;;;;;1.13;0.52;;;11.40;99.90;;;;;;5012923;28;20189;-76
2022/04/09 05:43:03;;;;;;;1.75;0.60;;;11.40;99.90;;;;;;5014171;28;20033;-77
2022/04/09 05:45:29;;;;;;;1.65;0.80;;;11.40;99.90;;;;;;5008591;28;20026;-76
2022/04/09 05:47:55;;;;;;;1.55;0.52;;;11.20;99.90;;;;;;5012298;28;20036;-77
2022/04/09 05:50:21;;;;;;;1.63;0.50;;;11.20;99.90;;;;;;5014189;28;20059;-77
2022/04/09 05:52:46;;;;;;;0.93;0.60;;;11.20;99.90;;;;;;5015541;28;20117;-77
2022/04/09 05:55:12;;;;;;;1.33;0.38;;;11.20;99.90;;;;;;5021577;28;20022;-77
2022/04/09 05:57:38;;;;;;;2.70;0.52;;;11.20;99.90;;;;;;5012943;28;20415;-77
2022/04/09 06:00:06;;;;;;;1.42;0.52;;;11.10;99.90;;;;;;5018682;28;20491;-77
2022/04/09 06:02:32;;;;;;;1.55;0.45;;;11.10;99.90;;;;;;5014050;28;20045;-77
2022/04/09 06:04:57;;;;;;;1.23;0.55;;;11.10;99.90;;;;;;5041420;28;20038;-77
2022/04/09 06:07:24;;;;;;;0.82;0.30;;;11.20;99.90;;;;;;5015765;28;20646;-77
2022/04/09 06:09:52;;;;;;;0.65;0.50;;;11.20;99.90;;;;;;5017903;28;20029;-77
2022/04/09 06:12:18;;;;;;;1.27;0.60;;;11.30;99.90;;;;;;5013863;28;20052;-77
2022/04/09 06:14:43;;;;;;;2.97;0.63;;;11.30;99.90;;;;;;5012593;28;20633;-77
2022/04/09 06:17:09;;;;;;;1.15;0.70;;;11.30;99.90;;;;;;5016560;28;20179;-77
2022/04/09 06:19:35;;;;;;;0.85;0.45;;;11.20;99.90;;;;;;5008986;28;20038;-76
2022/04/09 06:22:01;;;;;;;1.13;0.70;;;11.30;99.90;;;;;;5016466;28;20029;-76
2022/04/09 06:24:27;;;;;;;7.97;6.93;;;11.30;99.90;;;;;;5008928;28;20170;-76
2022/04/09 06:26:52;;;;;;;2.92;2.20;;;11.40;99.90;;;;;;5012590;28;20451;-75
2022/04/09 06:29:18;;;;;;;1.10;1.05;;;11.40;99.90;;;;;;5016073;28;20041;-77
2022/04/09 06:31:47;;;;;;;2.33;1.25;;;11.40;99.90;;;;;;5018702;28;20049;-76
2022/04/09 06:34:19;;;;;;;0.57;0.50;;;11.30;99.90;;;;;;5016945;28;20524;-78
2022/04/09 06:36:44;;;;;;;3.17;2.10;;;11.40;99.90;;;;;;5018575;28;20028;-78
2022/04/09 06:39:10;;;;;;;2.10;1.25;;;11.50;99.90;;;;;;5011464;28;20049;-77
2022/04/09 06:41:36;;;;;;;1.33;0.90;;;11.50;99.90;;;;;;5012900;28;20432;-79
2022/04/09 06:44:02;;;;;;;3.08;1.73;;;11.60;99.90;;;;;;5013665;28;20041;-77
2022/04/09 06:46:28;;;;;;;2.15;1.42;;;11.70;99.90;;;;;;5004436;28;20049;-77
2022/04/09 06:48:53;;;;;;;2.10;1.30;;;11.80;99.90;;;;;;5009635;28;20025;-77
2022/04/09 06:51:19;;;;;;;10.00;7.18;;;11.90;99.90;;;;;;5015348;28;20029;-77
2022/04/09 06:53:45;;;;;;;5.95;5.13;;;11.90;99.90;;;;;;5015699;28;20112;-77
2022/04/09 06:56:10;;;;;;;5.65;3.90;;;11.90;99.90;;;;;;5006686;28;20104;-77
2022/04/09 06:58:36;;;;;;;2.78;2.50;;;12.00;99.90;;;;;;5044860;28;20050;-78
2022/04/09 07:01:03;;;;;;;4.70;2.20;;;11.90;99.90;;;;;;5017912;28;20090;-77
2022/04/09 07:03:29;;;;;;;10.10;9.10;;;11.90;99.90;;;;;;5015932;28;20048;-79
2022/04/09 07:05:54;;;;;;;7.10;5.93;;;12.00;99.90;;;;;;5012827;28;20034;-79
2022/04/09 07:08:20;;;;;;;3.00;2.08;;;11.90;99.90;;;;;;5016100;28;20104;-79
2022/04/09 07:10:46;;;;;;;2.97;1.70;;;11.80;99.90;;;;;;5009451;28;21187;-79
2022/04/09 07:13:12;;;;;;;2.75;1.42;;;11.70;99.90;;;;;;5014534;28;20044;-81
2022/04/09 07:15:38;;;;;;;1.65;0.82;;;11.70;99.90;;;;;;5007642;28;20030;-80
2022/04/09 07:18:04;;;;;;;1.38;0.85;;;11.60;99.90;;;;;;5003982;28;20106;-80
2022/04/09 07:20:30;;;;;;;1.48;0.73;;;11.50;99.90;;;;;;5024573;28;20091;-80
2022/04/09 07:22:56;;;;;;;0.20;0.20;;;11.50;99.90;;;;;;5011297;28;20025;-80
2022/04/09 07:25:22;;;;;;;2.28;0.70;;;11.40;99.90;;;;;;5006366;28;21003;-80
2022/04/09 07:27:48;;;;;;;1.00;0.35;;;11.40;99.90;;;;;;5034434;28;21370;-78
2022/04/09 07:30:16;;;;;;;0.52;0.20;;;11.30;99.90;;;;;;5008187;28;20717;-78
2022/04/09 07:32:43;;;;;;;1.00;0.10;;;11.30;99.90;;;;;;5013571;28;20061;-78
2022/04/09 07:35:10;;;;;;;1.92;0.30;;;11.30;99.90;;;;;;5026821;28;20041;-78
2022/04/09 07:37:40;;;;;;;0.75;0.28;;;11.20;99.90;;;;;;5007555;28;20038;-78
2022/04/09 07:40:07;;;;;;;0.22;0.10;;;11.20;99.90;;;;;;5013236;28;20053;-78
2022/04/09 07:42:33;;;;;;;0.20;0.15;;;11.20;99.90;;;;;;5019403;28;20048;-79
2022/04/09 07:44:59;;;;;;;0.15;0.10;;;11.10;99.90;;;;;;5016015;28;20473;-78
2022/04/09 07:47:25;;;;;;;0.90;0.15;;;11.10;99.90;;;;;;5029885;28;20038;-78
2022/04/09 07:49:50;;;;;;;1.42;0.15;;;10.90;99.90;;;;;;5014539;28;20533;-77
2022/04/09 07:52:16;;;;;;;0.40;0.20;;;10.90;99.90;;;;;;5011827;28;20045;-77
2022/04/09 07:54:42;;;;;;;0.40;0.22;;;10.80;99.90;;;;;;5008737;28;20034;-77
2022/04/09 07:57:08;;;;;;;0.40;0.28;;;10.70;99.90;;;;;;5015519;28;20042;-77
2022/04/09 07:59:33;;;;;;;0.80;0.20;;;10.70;99.90;;;;;;5013706;28;20127;-77
2022/04/09 08:01:59;;;;;;;0.35;0.32;;;10.60;99.90;;;;;;5027514;28;20620;-78
2022/04/09 08:04:24;;;;;;;1.17;0.40;;;10.60;99.90;;;;;;5017111;28;20061;-78
2022/04/09 08:06:50;;;;;;;0.30;0.10;;;10.70;99.90;;;;;;5018670;28;20037;-79
2022/04/09 08:09:16;;;;;;;1.55;0.30;;;10.70;99.90;;;;;;5040484;28;20045;-79
2022/04/09 08:11:42;;;;;;;0.25;0.20;;;10.80;99.90;;;;;;5013866;28;20180;-79
2022/04/09 08:14:08;;;;;;;0.35;0.20;;;10.90;99.90;;;;;;5027393;28;20042;-79
2022/04/09 08:16:34;;;;;;;1.00;0.28;;;11.00;99.90;;;;;;5014622;28;20026;-78
2022/04/09 08:19:01;;;;;;;0.45;0.30;;;10.90;99.90;;;;;;5036886;28;21027;-79
2022/04/09 08:21:26;;;;;;;0.60;0.30;;;10.90;99.90;;;;;;5026163;28;20768;-78
2022/04/09 08:23:52;;;;;;;0.50;0.50;;;10.90;99.90;;;;;;5005337;28;20041;-79
2022/04/09 08:26:18;;;;;;;0.85;0.47;;;11.00;99.90;;;;;;5007283;28;20161;-78
2022/04/09 08:28:43;;;;;;;0.77;0.60;;;11.00;99.90;;;;;;5022151;28;20628;-77
2022/04/09 08:31:09;;;;;;;0.43;0.20;;;11.10;99.90;;;;;;5019975;28;20045;-78
2022/04/09 08:33:35;;;;;;;1.40;0.40;;;11.20;99.90;;;;;;5015169;28;20049;-78
2022/04/09 08:36:02;;;;;;;1.48;0.70;;;11.20;99.90;;;;;;5014151;28;20584;-78
2022/04/09 08:38:28;;;;;;;0.45;0.38;;;11.30;99.90;;;;;;5026766;28;20038;-77
2022/04/09 08:40:55;;;;;;;1.17;0.20;;;11.30;99.90;;;;;;5008767;28;20155;-77
2022/04/09 08:43:21;;;;;;;0.85;0.60;;;11.40;99.90;;;;;;5028706;28;20569;-79
2022/04/09 08:45:48;;;;;;;1.27;0.32;;;11.40;99.90;;;;;;5019057;28;20064;-78
2022/04/09 08:48:16;;;;;;;1.33;0.47;;;11.40;99.90;;;;;;5018358;28;20018;-78
2022/04/09 08:50:45;;;;;;;0.50;0.30;;;11.40;99.90;;;;;;5026848;28;20549;-78
2022/04/09 08:53:11;;;;;;;0.85;0.35;;;11.40;99.90;;;;;;5016501;28;20127;-77
2022/04/09 08:55:37;;;;;;;0.40;0.30;;;11.30;99.90;;;;;;5015262;28;20029;-78
2022/04/09 08:58:04;;;;;;;1.35;0.55;;;11.40;99.90;;;;;;5012255;28;20180;-78
2022/04/09 09:00:30;;;;;;;0.93;0.38;;;11.30;99.90;;;;;;5013296;28;20496;-78
2022/04/09 09:02:57;;;;;;;0.88;0.30;;;11.40;99.90;;;;;;5019045;28;20087;-78
2022/04/09 09:05:33;;;;;;;1.77;0.57;;;11.40;99.90;;;;;;5014615;28;20034;-78
2022/04/09 09:07:59;;;;;;;0.45;0.40;;;11.40;99.90;;;;;;5010893;28;20083;-79
2022/04/09 09:10:25;;;;;;;1.02;0.30;;;11.40;99.90;;;;;;5005756;28;20565;-77
2022/04/09 09:13:06;;;;;;;0.38;0.30;;;11.30;99.90;;;;;;5011208;28;20032;-78
2022/04/09 09:15:52;;;;;;;0.68;0.45;;;11.40;99.90;;;;;;5005425;28;20036;-78
2022/04/09 09:18:27;;;;;;;0.35;0.30;;;11.40;99.90;;;;;;5012529;28;20158;-79
2022/04/09 09:20:58;;;;;;;0.63;0.40;;;11.50;99.90;;;;;;5016826;28;20022;-73
2022/04/09 09:23:26;;;;;;;0.85;0.40;;;11.60;99.90;;;;;;5012813;28;20034;-72
2022/04/09 09:25:54;;;;;;;0.30;0.30;;;11.60;99.90;;;;;;4130578;28;10000868;-73
2022/04/09 09:28:34;;;;;;;0.68;0.35;;;11.80;99.90;;;;;;4156092;28;10000126;-73
2022/04/09 09:31:01;;;;;;;0.50;0.40;;;11.90;99.90;;;;;;5069221;28;20490;-73
2022/04/09 09:33:27;;;;;;;0.80;0.30;;;11.80;99.90;;;;;;5028868;28;20030;-73
2022/04/09 09:35:55;;;;;;;1.02;0.40;;;11.70;99.90;;;;;;5034843;28;20709;-71
2022/04/09 09:38:23;;;;;;;1.00;0.47;;;11.60;99.90;;;;;;5031839;28;20059;-73
2022/04/09 09:40:49;;;;;;;0.90;0.52;;;11.50;99.90;;;;;;5035209;28;20378;-78
2022/04/09 09:43:16;;;;;;;0.40;0.32;;;11.30;99.90;;;;;;5033675;28;20050;-74
2022/04/09 09:45:42;;;;;;;0.40;0.30;;;10.90;99.90;;;;;;5033664;28;20144;-74
2022/04/09 09:48:35;;;;;;;0.40;0.30;;;10.50;99.90;;;;;;4157372;28;10000579;-74
2022/04/09 09:51:01;;;;;;;0.20;0.20;;;10.30;99.90;;;;;;4157422;28;10000895;-74
2022/04/09 09:53:34;;;;;;;0.38;0.32;;;10.10;99.90;;;;;;5034299;28;20103;-73
2022/04/09 09:56:04;;;;;;;0.22;0.22;;;9.90;99.90;;;;;;5031184;28;20045;-74
2022/04/09 09:58:31;;;;;;;0.90;0.30;;;9.80;99.90;;;;;;5027727;28;20693;-74
2022/04/09 10:00:58;;;;;;;0.20;0.20;;;9.70;99.90;;;;;;5033219;28;20063;-74
2022/04/09 10:03:27;;;;;;;0.30;0.30;;;9.70;99.90;;;;;;5031282;28;20037;-74
2022/04/09 10:05:53;;;;;;;0.30;0.30;;;9.70;99.90;;;;;;5034523;28;20116;-73
2022/04/09 10:08:20;;;;;;;1.30;0.40;;;9.60;99.90;;;;;;5033884;28;20049;-74
2022/04/09 10:10:48;;;;;;;0.50;0.50;;;9.50;99.90;;;;;;5031990;28;20492;-72
2022/04/09 10:13:24;;;;;;;0.55;0.30;;;9.40;99.90;;;;;;5036905;28;20438;-72
2022/04/09 10:15:52;;;;;;;1.58;0.50;;;9.30;99.90;;;;;;5032040;28;20039;-72
2022/04/09 10:18:24;;;;;;;0.70;0.70;;;9.10;99.90;;;;;;5036183;28;20053;-72
2022/04/09 10:20:56;;;;;;;0.88;0.70;;;9.00;99.90;;;;;;5035161;28;20116;-72
2022/04/09 10:23:23;;;;;;;1.00;0.73;;;8.90;99.90;;;;;;5023732;28;20148;-73
2022/04/09 10:25:53;;;;;;;0.50;0.50;;;8.90;99.90;;;;;;5028132;28;20034;-72
2022/04/09 10:28:37;;;;;;;1.23;0.55;;;8.90;99.90;;;;;;5029466;28;20032;-71
2022/04/09 10:31:22;;;;;;;0.93;0.60;;;8.80;99.90;;;;;;5037105;28;20041;-73
2022/04/09 10:33:55;;;;;;;0.43;0.40;;;8.70;99.90;;;;;;5036942;28;20874;-72
2022/04/09 10:36:40;;;;;;;0.47;0.45;;;8.60;99.90;;;;;;5029009;28;20127;-72
2022/04/09 10:39:39;;;;;;;0.47;0.38;;;8.70;99.90;;;;;;5030934;28;20060;-73
2022/04/09 10:42:06;;;;;;;0.38;0.28;;;8.80;99.90;;;;;;5031048;28;20477;-72
2022/04/09 10:44:44;;;;;;;4.13;0.30;;;8.80;99.90;;;;;;5031325;28;20129;-72
2022/04/09 10:47:14;;;;;;;0.77;0.40;;;8.60;99.90;;;;;;5026792;28;20037;-71
2022/04/09 10:49:41;;;;;;;1.30;0.20;;;8.50;99.90;;;;;;5028214;28;20136;-72
2022/04/09 10:52:18;;;;;;;0.20;0.20;;;8.50;99.90;;;;;;5026825;28;20498;-71
2022/04/09 10:55:12;;;;;;;0.68;0.20;;;8.50;99.90;;;;;;5026449;28;20033;-72
2022/04/09 10:57:48;;;;;;;0.47;0.40;;;8.50;99.90;;;;;;5034729;28;20045;-72
2022/04/09 11:00:23;;;;;;;0.30;0.22;;;8.60;99.90;;;;;;5029390;28;20442;-71
2022/04/09 11:03:04;;;;;;;0.20;0.20;;;8.70;99.90;;;;;;5028117;28;20032;-72
2022/04/09 11:05:29;;;;;;;0.40;0.13;;;8.80;99.90;;;;;;5031060;28;20047;-72
2022/04/09 11:08:09;;;;;;;0.40;0.20;;;8.80;99.90;;;;;;5027346;28;20125;-72
2022/04/09 11:10:35;;;;;;;1.80;0.40;;;8.80;99.40;;;;;;5030539;28;20373;-72
2022/04/09 11:13:02;;;;;;;0.38;0.20;;;8.80;99.90;;;;;;5032032;28;20037;-71
2022/04/09 11:15:28;;;;;;;0.30;0.25;;;8.70;99.30;;;;;;5029174;28;20025;-72
2022/04/09 11:18:02;;;;;;;1.58;0.20;;;8.70;99.20;;;;;;5027784;28;20029;-73
2022/04/09 11:20:36;;;;;;;0.85;0.77;;;8.60;99.00;;;;;;5029635;28;20032;-72
2022/04/09 11:23:16;;;;;;;0.30;0.30;;;8.60;99.00;;;;;;5033440;28;20096;-72
2022/04/09 11:25:44;;;;;;;0.47;0.25;;;8.70;99.00;;;;;;5027880;28;20021;-71
2022/04/09 11:28:20;;;;;;;0.20;0.10;;;8.60;99.00;;;;;;5032371;28;20035;-71
2022/04/09 11:30:58;;;;;;;1.67;0.20;;;8.60;99.10;;;;;;5030864;28;20049;-72
2022/04/09 11:33:24;;;;;;;0.20;0.20;;;8.60;98.70;;;;;;5031822;28;20021;-72
2022/04/09 11:35:51;;;;;;;0.52;0.20;;;8.60;99.80;;;;;;5034520;28;20037;-72
2022/04/09 11:38:17;;;;;;;0.63;0.52;;;8.70;99.40;;;;;;5031200;28;20128;-72
2022/04/09 11:40:46;;;;;;;3.30;2.47;;;8.70;98.80;;;;;;5029895;28;20395;-72
2022/04/09 11:43:16;;;;;;;0.40;0.40;;;8.80;98.70;;;;;;5026301;28;20029;-72
2022/04/09 11:45:43;;;;;;;1.50;0.73;;;8.80;98.40;;;;;;5029822;28;20039;-71
2022/04/09 11:48:15;;;;;;;0.38;0.20;;;8.70;98.90;;;;;;5030664;28;20119;-72
2022/04/09 11:50:41;;;;;;;0.40;0.38;;;8.70;97.90;;;;;;5027452;28;20033;-72
2022/04/09 11:53:13;;;;;;;1.05;0.20;;;8.70;98.40;;;;;;5028720;28;20059;-72
2022/04/09 11:55:41;;;;;;;0.40;0.20;;;8.70;97.60;;;;;;5031140;28;20025;-71
2022/04/09 11:58:08;;;;;;;0.57;0.28;;;8.60;98.30;;;;;;5028369;28;20037;-71
2022/04/09 12:00:38;;;;;;;0.30;0.20;;;8.60;98.70;;;;;;5033777;28;20033;-72
2022/04/09 12:03:05;;;;;;;0.57;0.32;;;8.60;99.00;;;;;;5029320;28;20235;-72
2022/04/09 12:05:44;;;;;;;2.33;0.60;;;8.50;98.50;;;;;;5034078;28;20112;-72
2022/04/09 12:08:14;;;;;;;0.50;0.30;;;8.40;99.40;;;;;;5035038;28;20049;-72
2022/04/09 12:10:58;;;;;;;0.30;0.30;;;8.40;99.00;;;;;;5034171;28;20029;-72
2022/04/09 12:13:34;;;;;;;0.30;0.30;;;8.30;98.70;;;;;;5030363;28;21736;-72
2022/04/09 12:16:10;;;;;;;0.40;0.35;;;8.30;98.70;;;;;;5030178;28;20044;-71
2022/04/09 12:18:36;;;;;;;0.68;0.65;;;8.30;98.90;;;;;;5036395;28;20029;-68
2022/04/09 12:21:18;;;;;;;0.75;0.30;;;8.30;99.80;;;;;;5033265;28;20025;-69
2022/04/09 12:23:45;;;;;;;0.32;0.25;;;8.40;98.40;;;;;;5035306;28;20029;-68
2022/04/09 12:26:24;;;;;;;0.98;0.38;;;8.40;97.40;;;;;;5029662;28;20133;-69
2022/04/09 12:29:09;;;;;;;0.35;0.30;;;8.30;97.90;;;;;;5035874;28;20118;-69
2022/04/09 12:31:35;;;;;;;0.47;0.20;;;8.30;98.10;;;;;;5031950;28;20028;-69
2022/04/09 12:34:02;;;;;;;0.93;0.40;;;8.40;97.70;;;;;;5034446;28;20040;-69
2022/04/09 12:36:28;;;;;;;1.10;0.20;;;8.40;96.80;;;;;;5031060;28;20037;-69
2022/04/09 12:38:54;;;;;;;0.38;0.38;;;8.30;96.90;;;;;;5030547;28;20083;-69
2022/04/09 12:41:20;;;;;;;0.32;0.20;;;8.30;97.30;;;;;;5032461;28;20025;-69
2022/04/09 12:43:47;;;;;;;0.40;0.22;;;8.40;97.10;;;;;;5026445;28;20032;-70
2022/04/09 12:46:15;;;;;;;0.95;0.70;;;8.30;95.80;;;;;;5035776;28;20052;-70
2022/04/09 12:48:49;;;;;;;0.55;0.45;;;8.30;96.00;;;;;;5037408;28;20032;-70
2022/04/09 12:51:25;;;;;;;0.50;0.35;;;8.30;96.80;;;;;;5034035;28;20024;-70